Hunters Creek Village, Texas
Current Conditions -  °F | °C
As of 1:15 PM on Monday 22 Dec 2014 (Local Time) from KMCJ Reporting Station
Few Clouds Few Clouds  
Wind Chill: 72°   Ceiling: Unl
Heat Index: 72°   Visibility: NA
Dew Point: 59°   Wind: 6mph
Humidity: 64%   Direction: 200°SSW
Pressure: 29.63"   Gusts: 22mph
Location:  29.7698°N, 95.5164°W
Report Text: KMCJ 221915Z AUTO 20005G19KT FEW023 22/15 A2963 RMK AO1
Loading
Personal Weather Stations






























Interactive Weather Map New forecast layout! Learn more

10-Day Weather Forecast

Advertisements
Track Severe Weather on mobile